Data for 03/20/2007

Time Sea-Level Adjusted Pressure Absolute Pressure Temperature Relative Humidity Dew Point   
(mb) (inHg) (mb) (inHg) (C) (F) (%) (C) (F)
00:05 1010 29.83 839 24.78 12.5 54.6 30 -4.5 23.9
00:10 1010 29.83 839 24.78 12.5 54.5 30 -4.5 23.9
00:15 1010 29.83 839 24.78 12.5 54.6 30 -4.5 23.9
00:20 1010 29.83 839 24.78 12.9 55.2 28 -5 23
00:25 1010 29.83 839 24.78 13.1 55.6 29 -4.6 23.7
00:30 1010 29.83 839 24.78 12.7 54.9 30 -4.3 24.3
00:35 1010 29.83 839 24.78 12.1 53.7 31 -4.6 23.7
00:40 1010 29.83 839 24.78 12.1 53.8 31 -4.5 24
00:45 1010 29.83 839 24.78 12.1 53.8 32 -4.1 24.7
00:50 1010 29.83 839 24.78 11.4 52.5 34 -4.1 24.7
00:55 1010 29.83 839 24.78 11.4 52.5 33 -4.2 24.5
01:00 1010 29.83 839 24.78 11.5 52.6 33 -4.3 24.3
01:05 1010 29.83 839 24.78 11.5 52.8 33 -4.2 24.4
01:10 1010 29.83 839 24.78 11.5 52.7 33 -4 24.8
01:15 1010 29.83 839 24.78 11.3 52.3 34 -4 24.8
01:20 1010 29.83 839 24.78 11.2 52.1 34 -3.9 25
01:25 1010 29.83 839 24.78 11.1 52 35 -3.9 24.9
01:30 1010 29.83 839 24.78 11.1 52 35 -3.9 25
01:35 1010 29.83 839 24.78 11.2 52.1 34 -4 24.8
01:40 1010 29.83 839 24.78 11.1 51.9 35 -3.8 25.2
01:45 1010 29.83 839 24.78 10.9 51.5 35 -3.8 25.1
01:50 1010 29.83 839 24.78 10.8 51.4 36 -3.7 25.3
01:55 1010 29.83 839 24.78 10.7 51.3 35 -3.9 24.9
02:00 1010 29.83 839 24.78 10.7 51.3 37 -3.3 26
02:05 1010 29.83 839 24.78 10.2 50.3 39 -3.3 26.1
02:10 1010 29.83 839 24.78 9.9 49.8 40 -3.2 26.2
02:15 1010 29.83 839 24.78 8.9 48 40 -3.9 25
02:20 1010 29.83 839 24.78 9.2 48.5 42 -3.1 26.5
02:25 1010 29.83 839 24.78 9.1 48.3 39 -4 24.8
02:30 1010 29.83 839 24.78 9.4 48.9 40 -3.6 25.5
02:35 1010 29.83 839 24.78 9.5 49.2 39 -3.7 25.3
02:40 1010 29.83 839 24.78 9.7 49.4 39 -3.7 25.4
02:45 1010 29.83 839 24.78 9.6 49.2 39 -3.6 25.5
02:50 1010 29.83 839 24.78 9.7 49.4 39 -3.7 25.4
02:55 1010 29.83 839 24.78 9.7 49.4 40 -3.4 25.8
03:00 1009 29.8 839 24.78 9.4 48.9 41 -3.1 26.4
03:05 1009 29.8 839 24.78 8.9 48 43 -3 26.6
03:10 1009 29.8 839 24.78 8.5 47.3 43 -3.3 26
03:15 1009 29.8 839 24.78 8.7 47.7 42 -3.4 25.8
03:20 1009 29.8 839 24.78 8.8 47.8 44 -2.8 26.9
03:25 1009 29.8 839 24.78 8.6 47.4 43 -3.3 26
03:30 1009 29.8 839 24.78 8.5 47.2 44 -3 26.6
03:35 1009 29.8 839 24.78 7.9 46.2 46 -3 26.6
03:40 1009 29.8 838 24.75 8.1 46.6 45 -3.2 26.3
03:45 1009 29.8 838 24.75 7.9 46.2 46 -3.1 26.4
03:50 1009 29.8 838 24.75 7.9 46.2 46 -2.9 26.8
03:55 1009 29.8 838 24.75 7.3 45.1 46 -3.7 25.4
04:00 1009 29.8 838 24.75 7.3 45.1 50 -2.4 27.7
04:05 1009 29.8 838 24.75 6.8 44.3 48 -3.5 25.7
04:10 1009 29.8 838 24.75 7.5 45.6 45 -3.6 25.6
04:15 1009 29.8 838 24.75 8.3 46.9 43 -3.5 25.8
04:20 1009 29.8 838 24.75 8.5 47.3 43 -3.3 26.1
04:25 1009 29.8 838 24.75 8.5 47.3 43 -3.3 26.1
04:30 1009 29.8 838 24.75 8.5 47.2 44 -3 26.7
04:35 1009 29.8 838 24.75 7.8 46 46 -3.2 26.2
04:40 1009 29.8 838 24.75 8.1 46.6 45 -3.2 26.2
04:45 1009 29.8 838 24.75 8.4 47.1 43 -3.5 25.7
04:50 1009 29.8 838 24.75 8.9 48.1 42 -3.4 25.8
04:55 1009 29.8 838 24.75 9.2 48.6 40 -3.7 25.4
05:00 1009 29.8 838 24.75 9.5 49.1 40 -3.3 26
05:05 1009 29.8 838 24.75 9.1 48.3 43 -2.9 26.8
05:10 1009 29.8 838 24.75 8.2 46.7 45 -2.9 26.8
05:15 1009 29.8 838 24.75 7.9 46.2 46 -3 26.6
05:20 1008 29.77 838 24.75 7.6 45.6 48 -2.6 27.3
05:25 1008 29.77 838 24.75 7.8 46 48 -2.4 27.6
05:30 1008 29.77 838 24.75 6.6 43.9 54 -2.1 28.2
05:35 1008 29.77 838 24.75 6.1 43 53 -2.8 26.9
05:40 1008 29.77 838 24.75 6.5 43.6 52 -2.7 27.2
05:45 1008 29.77 837 24.72 6.8 44.3 49 -3.1 26.5
05:50 1008 29.77 837 24.72 7.4 45.4 47 -3.2 26.2
05:55 1008 29.77 837 24.72 6.9 44.3 51 -2.5 27.4
06:00 1008 29.77 837 24.72 6.9 44.4 49 -3.2 26.2
06:05 1008 29.77 837 24.72 6.8 44.3 50 -2.8 27
06:10 1008 29.77 837 24.72 7.2 45 48 -3.1 26.4
06:15 1008 29.77 837 24.72 7.4 45.4 47 -3.1 26.4
06:20 1008 29.77 837 24.72 7.8 46 46 -3.2 26.2
06:25 1008 29.77 837 24.72 8.1 46.5 45 -3.1 26.5
06:30 1008 29.77 837 24.72 8.1 46.5 45 -3.1 26.5
06:35 1008 29.77 837 24.72 8.3 46.9 44 -3.4 25.9
06:40 1008 29.77 837 24.72 8.7 47.7 43 -3 26.6
06:45 1008 29.77 837 24.72 8.4 47 45 -2.9 26.8
06:50 1008 29.77 837 24.72 8 46.4 46 -2.7 27.1
06:55 1008 29.77 837 24.72 7.7 45.8 47 -2.9 26.8
07:00 1008 29.77 837 24.72 7.3 45.1 48 -3 26.5
07:05 1008 29.77 837 24.72 7.3 45.1 48 -2.9 26.8
07:10 1008 29.77 837 24.72 6.8 44.3 49 -3 26.6
07:15 1008 29.77 837 24.72 7.3 45.2 46 -3.5 25.7
07:20 1008 29.77 837 24.72 7.8 46 45 -3.5 25.7
07:25 1008 29.77 837 24.72 7.9 46.3 43 -3.8 25.1
07:30 1008 29.77 837 24.72 7.9 46.1 45 -3.5 25.8
07:35 1008 29.77 837 24.72 7.2 44.9 48 -3.2 26.2
07:40 1008 29.77 837 24.72 7 44.6 46 -3.9 25
07:45 1008 29.77 837 24.72 7.2 44.9 46 -3.7 25.3
07:50 1008 29.77 837 24.72 7.3 45.1 46 -3.7 25.3
07:55 1008 29.77 837 24.72 7.3 45.1 43 -4.5 24
08:00 1008 29.77 837 24.72 8.2 46.8 37 -5.6 22
08:05 1008 29.77 837 24.72 9.1 48.4 35 -5.4 22.2
08:10 1008 29.77 837 24.72 9.2 48.5 38 -4.5 24
08:15 1008 29.77 837 24.72 9.1 48.4 35 -5.6 21.8
08:20 1008 29.77 837 24.72 9.2 48.6 35 -5.5 22.1
08:25 1008 29.77 837 24.72 9.6 49.3 38 -3.9 25
08:30 1008 29.77 837 24.72 8.8 47.9 41 -3.6 25.5
08:35 1008 29.77 837 24.72 8.1 46.6 43 -3.6 25.6
08:40 1008 29.77 837 24.72 8.7 47.6 40 -4.1 24.7
08:45 1008 29.77 837 24.72 9.1 48.3 39 -4 24.8
08:50 1008 29.77 837 24.72 9.8 49.7 35 -4.8 23.4
08:55 1008 29.77 837 24.72 10.7 51.3 35 -4.1 24.6
09:00 1008 29.77 837 24.72 11.2 52.1 35 -3.7 25.4
09:05 1008 29.77 837 24.72 11.1 51.9 35 -3.8 25.2
09:10 1008 29.77 837 24.72 11 51.7 35 -4.1 24.7
09:15 1008 29.77 837 24.72 11.1 52 33 -4.7 23.6
09:20 1008 29.77 837 24.72 11.8 53.2 31 -4.8 23.3
09:25 1008 29.77 837 24.72 12.6 54.6 30 -4.4 24
09:30 1008 29.77 837 24.72 13.2 55.7 27 -5.2 22.7
09:35 1008 29.77 837 24.72 13.7 56.7 24 -6.7 19.9
09:40 1008 29.77 837 24.72 14 57.3 23 -6.6 20.1
09:45 1007 29.74 837 24.72 14.4 58 21 -7.6 18.4
09:50 1007 29.74 837 24.72 14.6 58.3 20 -7.9 17.8
09:55 1007 29.74 837 24.72 14.8 58.6 20 -7.7 18.2
10:00 1007 29.74 837 24.72 14.7 58.5 20 -8.2 17.2
10:05 1007 29.74 837 24.72 14.7 58.4 22 -7 19.3
10:10 1007 29.74 837 24.72 14.9 58.8 21 -7 19.3
10:15 1007 29.74 837 24.72 15 58.9 20 -7.7 18.2
10:20 1007 29.74 836 24.69 14.9 58.8 21 -7.4 18.6
10:25 1007 29.74 836 24.69 14.9 58.8 21 -7.4 18.7
10:30 1007 29.74 836 24.69 14.9 58.9 21 -7.2 19
10:35 1007 29.74 836 24.69 14.8 58.7 21 -7.5 18.4
10:40 1007 29.74 836 24.69 14.8 58.6 20 -8 17.6
10:45 1007 29.74 836 24.69 14.9 58.8 20 -7.7 18.1
10:50 1007 29.74 836 24.69 15.3 59.5 22 -6.5 20.4
10:55 1007 29.74 836 24.69 15.5 59.9 22 -6.3 20.7
11:00 1007 29.74 836 24.69 15.3 59.5 21 -7 19.3
11:05 1007 29.74 836 24.69 15 59 23 -6 21.2
11:10 1007 29.74 836 24.69 14.9 58.8 23 -5.8 21.5
11:15 1007 29.74 836 24.69 15.3 59.5 23 -5.6 21.9
11:20 1007 29.74 836 24.69 15.5 59.9 21 -6.4 20.4
11:25 1006 29.71 836 24.69 15.6 60 21 -6.6 20
11:30 1006 29.71 836 24.69 15.8 60.4 21 -6.6 20.1
11:35 1006 29.71 836 24.69 15.9 60.6 20 -7.2 19.1
11:40 1006 29.71 836 24.69 16.4 61.5 21 -6.2 20.9
11:45 1006 29.71 835 24.66 16.5 61.6 20 -6.7 20
11:50 1006 29.71 835 24.66 16.4 61.5 20 -6.8 19.7
11:55 1006 29.71 835 24.66 16.4 61.6 19 -7.4 18.7
12:00 1006 29.71 835 24.66 16.5 61.7 17 -8.6 16.5
12:05 1006 29.71 835 24.66 16.7 62 16 -9 15.9
12:10 1006 29.71 835 24.66 16.3 61.3 18 -8 17.7
12:15 1006 29.71 835 24.66 16.2 61.1 19 -7.7 18.1
12:20 1006 29.71 835 24.66 15.9 60.7 19 -7.8 17.9
12:25 1006 29.71 835 24.66 15.8 60.5 19 -7.6 18.4
12:30 1006 29.71 835 24.66 15.8 60.5 18 -8.1 17.5
12:35 1006 29.71 835 24.66 15.5 59.9 19 -7.9 17.7
12:40 1006 29.71 835 24.66 15.3 59.6 19 -8.3 17.1
12:45 1006 29.71 835 24.66 15.3 59.5 19 -8 17.5
12:50 1006 29.71 835 24.66 15.2 59.4 19 -7.9 17.8
12:55 1006 29.71 835 24.66 15.3 59.5 19 -8.4 16.9
13:00 1006 29.71 835 24.66 15.5 59.9 19 -7.9 17.8
13:05 1006 29.71 835 24.66 15.4 59.8 19 -8.1 17.5
13:10 1006 29.71 835 24.66 15.2 59.4 19 -8 17.7
13:15 1006 29.71 835 24.66 15.1 59.1 20 -8 17.6
13:20 1006 29.71 835 24.66 15.1 59.1 19 -8 17.6
13:25 1006 29.71 835 24.66 15 59 21 -7.2 19
13:30 1006 29.71 835 24.66 15.1 59.1 19 -8 17.6
13:35 1006 29.71 835 24.66 15 58.9 20 -8 17.6
13:40 1006 29.71 835 24.66 14.9 58.9 20 -8 17.6
13:45 1006 29.71 835 24.66 14.8 58.6 20 -7.7 18.2
13:50 1006 29.71 835 24.66 14.8 58.7 20 -8.1 17.5
13:55 1006 29.71 835 24.66 15.1 59.1 20 -7.9 17.9
14:00 1006 29.71 835 24.66 14.9 58.9 21 -6.9 19.6
14:05 1006 29.71 835 24.66 15 59 21 -7.2 19
14:10 1006 29.71 835 24.66 14.8 58.6 22 -6.9 19.6
14:15 1006 29.71 835 24.66 14.9 58.9 21 -7.1 19.3
14:20 1006 29.71 835 24.66 14.9 58.8 20 -7.6 18.4
14:25 1006 29.71 835 24.66 14.9 58.7 20 -7.6 18.4
14:30 1006 29.71 835 24.66 14.9 58.8 21 -6.9 19.6
14:35 1006 29.71 835 24.66 14.9 58.7 21 -7.2 19.1
14:40 1006 29.71 835 24.66 14.9 58.7 22 -6.9 19.6
14:45 1006 29.71 835 24.66 15.2 59.3 20 -7.4 18.8
14:50 1006 29.71 835 24.66 14.9 58.9 22 -6.8 19.8
14:55 1006 29.71 835 24.66 14.6 58.3 22 -6.9 19.5
15:00 1006 29.71 835 24.66 14.7 58.5 22 -6.5 20.3
15:05 1006 29.71 835 24.66 14.5 58.2 24 -5.9 21.3
15:10 1006 29.71 835 24.66 14.5 58 23 -6.3 20.7
15:15 1006 29.71 835 24.66 14.5 58.1 23 -6.4 20.5
15:20 1006 29.71 835 24.66 14.4 57.9 24 -6.1 21.1
15:25 1006 29.71 835 24.66 14.1 57.4 26 -5.2 22.7
15:30 1006 29.71 835 24.66 13.6 56.4 32 -2.6 27.3
15:35 1006 29.71 835 24.66 12.5 54.4 38 -1.3 29.6
15:40 1006 29.71 835 24.66 11.7 53.1 41 -1.1 30
15:45 1006 29.71 835 24.66 11.3 52.3 44 -0.3 31.4
15:50 1006 29.71 836 24.69 10.9 51.5 49 0.6 33.1
15:55 1007 29.74 836 24.69 10.1 50.3 53 1.2 34.1
16:00 1007 29.74 836 24.69 9.7 49.4 55 1.2 34.1
16:05 1007 29.74 836 24.69 9.3 48.8 58 1.5 34.6
16:10 1007 29.74 836 24.69 9.1 48.3 61 2.1 35.8
16:15 1007 29.74 836 24.69 8.9 48 60 1.5 34.7
16:20 1007 29.74 836 24.69 8.9 47.9 62 2.1 35.8
16:25 1007 29.74 836 24.69 8.4 47.2 63 1.9 35.4
16:30 1007 29.74 836 24.69 8.2 46.7 65 1.9 35.5
16:35 1007 29.74 836 24.69 8.1 46.6 66 2.1 35.8
16:40 1007 29.74 836 24.69 8.1 46.6 67 2.3 36.2
16:45 1007 29.74 837 24.72 7.9 46.3 68 2.4 36.4
16:50 1007 29.74 837 24.72 7.6 45.6 71 2.7 36.8
16:55 1008 29.77 837 24.72 7.2 45 75 3 37.5
17:00 1008 29.77 837 24.72 6.9 44.4 74 2.6 36.7
17:05 1008 29.77 837 24.72 6.7 44.1 75 2.7 36.9
17:10 1008 29.77 837 24.72 6.7 44.1 77 3 37.5
17:15 1008 29.77 837 24.72 6.6 43.9 78 3.1 37.6
17:20 1008 29.77 837 24.72 6.4 43.6 78 2.9 37.3
17:25 1008 29.77 837 24.72 6.3 43.4 81 3.2 37.8
17:30 1008 29.77 837 24.72 6.2 43.2 79 2.9 37.3
17:35 1008 29.77 837 24.72 6.1 43.1 76 2.3 36.1
17:40 1008 29.77 837 24.72 6.1 43.1 79 2.8 37.1
17:45 1008 29.77 837 24.72 5.9 42.6 82 3 37.4
17:50 1008 29.77 837 24.72 5.8 42.4 83 3.1 37.6
17:55 1008 29.77 837 24.72 5.6 42.1 82 2.9 37.2
18:00 1008 29.77 837 24.72 5.8 42.4 82 2.9 37.2
18:05 1008 29.77 837 24.72 5.7 42.2 83 3 37.4
18:10 1008 29.77 837 24.72 5.8 42.5 80 2.7 36.9
18:15 1008 29.77 837 24.72 6.1 42.9 82 3.3 37.9
18:20 1008 29.77 837 24.72 6 42.8 81 3 37.4
18:25 1008 29.77 837 24.72 5.9 42.6 81 2.8 37
18:30 1008 29.77 837 24.72 5.9 42.7 80 2.7 36.9
18:35 1008 29.77 837 24.72 6 42.9 80 2.8 37
18:40 1008 29.77 837 24.72 6.1 43 78 2.5 36.5
18:45 1008 29.77 837 24.72 6.3 43.3 80 3.2 37.7
18:50 1008 29.77 838 24.75 6.3 43.3 73 1.8 35.2
18:55 1008 29.77 838 24.75 6.4 43.6 74 2.1 35.7
19:00 1008 29.77 838 24.75 6.6 43.9 74 2.2 36
19:05 1008 29.77 838 24.75 6.7 44 72 2.1 35.7
19:10 1008 29.77 838 24.75 6.3 43.3 74 1.9 35.4
19:15 1008 29.77 838 24.75 5.7 42.3 78 2.2 36
19:20 1008 29.77 838 24.75 5.3 41.6 80 2.1 35.8
19:25 1008 29.77 838 24.75 5 41 81 2.1 35.7
19:30 1009 29.8 838 24.75 4.8 40.7 83 2.2 36
19:35 1009 29.8 838 24.75 4.7 40.4 83 2 35.6
19:40 1009 29.8 838 24.75 4.9 40.8 82 2 35.6
19:45 1009 29.8 838 24.75 5.1 41.1 81 2 35.7
19:50 1009 29.8 838 24.75 5.3 41.6 74 1 33.9
19:55 1009 29.8 838 24.75 5.2 41.4 75 1.2 34.1
20:00 1009 29.8 838 24.75 5.3 41.5 74 1.1 33.9
20:05 1009 29.8 838 24.75 5.1 41.2 73 0.6 33.1
20:10 1009 29.8 838 24.75 4.8 40.6 77 1.2 34.1
20:15 1009 29.8 839 24.78 4.6 40.3 75 0.5 33
20:20 1009 29.8 839 24.78 4.9 40.8 75 0.9 33.6
20:25 1009 29.8 839 24.78 5 41 74 0.8 33.4
20:30 1009 29.8 839 24.78 4.7 40.5 77 1.1 33.9
20:35 1010 29.83 839 24.78 4.6 40.4 77 1 33.7
20:40 1010 29.83 839 24.78 4.5 40.2 76 0.8 33.4
20:45 1010 29.83 839 24.78 4.6 40.3 77 1 33.7
20:50 1010 29.83 839 24.78 4.6 40.3 78 1.1 34
20:55 1010 29.83 839 24.78 4.6 40.3 76 0.8 33.4
21:00 1010 29.83 839 24.78 4.7 40.5 79 1.3 34.4
21:05 1010 29.83 839 24.78 4.8 40.7 78 1.3 34.4
21:10 1010 29.83 839 24.78 4.7 40.5 76 1 33.7
21:15 1010 29.83 839 24.78 4.6 40.3 77 0.8 33.5
21:20 1010 29.83 839 24.78 4.5 40 76 0.7 33.2
21:25 1010 29.83 839 24.78 4.3 39.7 77 0.5 32.9
21:30 1010 29.83 839 24.78 4.1 39.5 78 0.6 33.1
21:35 1010 29.83 839 24.78 4 39.1 78 0.4 32.7
21:40 1010 29.83 839 24.78 4.1 39.3 79 0.7 33.3
21:45 1010 29.83 839 24.78 4 39.2 79 0.7 33.3
21:50 1010 29.83 839 24.78 4 39.2 81 1 33.8
21:55 1010 29.83 840 24.81 3.8 38.8 81 0.9 33.7
22:00 1011 29.85 840 24.81 3.6 38.6 82 0.9 33.7
22:05 1011 29.85 840 24.81 3.8 38.8 82 0.9 33.7
22:10 1011 29.85 840 24.81 3.8 38.8 81 0.8 33.5
22:15 1011 29.85 840 24.81 4.1 39.3 79 0.8 33.4
22:20 1011 29.85 840 24.81 4 39.1 81 1 33.7
22:25 1011 29.85 840 24.81 3.9 39 81 1 33.7
22:30 1011 29.85 840 24.81 4 39.3 80 0.9 33.6
22:35 1011 29.85 840 24.81 4.3 39.8 79 1.1 33.9
22:40 1011 29.85 840 24.81 4.5 40.2 79 1.2 34.1
22:45 1011 29.85 840 24.81 4.5 40.2 76 0.8 33.4
22:50 1011 29.85 840 24.81 4.6 40.2 72 -0 32
22:55 1011 29.85 840 24.81 4.7 40.4 67 -0.8 30.5
23:00 1011 29.85 840 24.81 4.7 40.5 64 -1.5 29.3
23:05 1011 29.85 840 24.81 4.8 40.6 63 -1.7 28.9
23:10 1011 29.85 841 24.83 4.8 40.6 58 -2.8 27
23:15 1011 29.85 841 24.83 4.8 40.6 56 -3.2 26.2
23:20 1011 29.85 841 24.83 4.7 40.5 58 -2.7 27.1
23:25 1011 29.85 841 24.83 4.6 40.3 57 -3.3 26.1
23:30 1012 29.88 841 24.83 4.5 40 57 -3.3 26.1
23:35 1012 29.88 841 24.83 4.4 39.8 55 -4 24.9
23:40 1012 29.88 841 24.83 4.2 39.6 55 -4.2 24.5
23:45 1012 29.88 841 24.83 4.1 39.3 53 -4.6 23.8
23:50 1012 29.88 841 24.83 3.9 39.1 59 -3.4 25.8
23:55 1012 29.88 841 24.83 3.6 38.5 60 -3.5 25.6
24:00 1012 29.88 841 24.83 3.6 38.5 59 -3.7 25.4